Jotomar III — CRA5981 — position and weather

sailwx.info

Track history (hours):
 
Tides and Currents Weather Stations Pressure Air Temp Water Temp Dewpoint Dewpoint Depression Visibility Wind Speed Wind Dir Waves Ship Positions

Jotomar III

Last reported at 2017-Jun-19 11:43 UTC. Time now 2017-Jun-24 00:02 UTC.
Position N 38°41' W 009°22'.

Length 18 m.

Type: Sailing vessel. MMSI: 263941350.

Date/timePositionNaut miles runAvg speedWind from/ knotsBaromVisibWave heightAir tempDewpointWater temp
2017-Jun-19 11:43N 38°41' W 009°22'2 5.5
2017-Jun-19 11:26N 38°40' W 009°20'3 5.7
2017-Jun-19 10:50N 38°41' W 009°16'  
2017-Jun-17 01:00N 38°41' W 009°14'4 5.4
2017-Jun-17 00:16N 38°40' W 009°19'1 0.6
2017-Jun-16 21:52N 38°41' W 009°17'3 1.7
2017-Jun-16 19:59N 38°41' W 009°13'4 4.4
2017-Jun-16 19:08N 38°41' W 009°18'5 4.1
2017-Jun-16 17:53N 38°39' W 009°24'3 6.5
2017-Jun-16 17:27N 38°39' W 009°28'  
Track history (hours):
 
Tides and Currents Weather Stations Pressure Air Temp Water Temp Dewpoint Dewpoint Depression Visibility Wind Speed Wind Dir Waves Ship Positions

Jotomar III

Last reported at 2017-Jun-19 11:43 UTC. Time now 2017-Jun-24 00:02 UTC.
Position N 38°41' W 009°22'.

Length 18 m.

Type: Sailing vessel. MMSI: 263941350.

Date/timePositionNaut miles runAvg speedWind from/ knotsBaromVisibWave heightAir tempDewpointWater temp
2017-Jun-19 11:43N 38°41' W 009°22'2 5.5
2017-Jun-19 11:26N 38°40' W 009°20'3 5.7
2017-Jun-19 10:50N 38°41' W 009°16'  
2017-Jun-17 01:00N 38°41' W 009°14'4 5.4
2017-Jun-17 00:16N 38°40' W 009°19'1 0.6
2017-Jun-16 21:52N 38°41' W 009°17'3 1.7
2017-Jun-16 19:59N 38°41' W 009°13'4 4.4
2017-Jun-16 19:08N 38°41' W 009°18'5 4.1
2017-Jun-16 17:53N 38°39' W 009°24'3 6.5
2017-Jun-16 17:27N 38°39' W 009°28'  

Dump ship's entire track history